• Join FlightAware (Why Join?)
  • Login
  • US Flag 
12:54PM EDT


 

Airport Tracker/Info


-or-


 

Live Flight TrackerFlight Track Log ✈ ASQ5745 ✈ 12-May-2013 ✈ KIAD - KALB

Flight Track Log - Related Links

Times and Time Zones

All times are in EDT time to prevent confusion due to time zone crossing. See the ASQ5745 flight status page for this flight to view local times or setup timezone preferences in your user account.

Time Position Orientation Groundspeed Altitude Reporting Facility
EDT Latitude Longitude Course Direction KTS MPH feet Rate Location/Type
08:31AM 38.9667 -77.4333 North 152 175 1,500  Level Potomac TRACON
08:32AM 39.0000 -77.4333 360° North 205 236 3,000 2,220 Climbing Potomac TRACON
08:34AM 39.1492 -77.4569 353° North 252 290 8,200 2,400 Climbing Washington Center
08:35AM 39.4282 -77.4500 North  Level FlightAware Approximate
08:35AM 39.2303 -77.4619 357° North 274 315 10,500  Level Washington Center
08:36AM 39.5272 -77.4500 North  Level FlightAware Approximate
08:36AM 39.3197 -77.4694 356° North 299 344 11,700  Level Washington Center
08:37AM 39.4239 -77.4722 359° North 336 387 13,200 1,620 Climbing Washington Center
08:39AM 39.6133 -77.4547 North 397 457 16,100 1,680 Climbing New York Center
08:40AM 39.7303 -77.4522 North 410 472 17,700 1,620 Climbing New York Center
08:41AM 39.8472 -77.4500 North 416 479 19,300 1,500 Climbing New York Center
08:42AM 39.9681 -77.4506 360° North 426 490 20,800 1,020 Climbing New York Center
08:43AM 40.0936 -77.4464 North 431 496 21,400 840 Climbing New York Center
08:44AM 40.2000 -77.4078 15° North 438 504 22,600 1,200 Climbing New York Center
08:45AM 40.3097 -77.3092 34° Northeast 438 504 23,900 1,140 Climbing New York Center
08:46AM 40.4175 -77.2078 36° Northeast 454 522 25,000 540 Climbing New York Center
08:47AM 40.5292 -77.1061 35° Northeast 474 545 25,000  Level New York Center
08:48AM 40.6456 -76.9964 36° Northeast 494 568 25,000  Level New York Center
08:49AM 40.7717 -76.8956 31° Northeast 516 594 25,000  Level New York Center
08:50AM 40.9067 -76.8225 22° Northeast 522 601 25,000  Level New York Center
08:51AM 41.0439 -76.7494 22° Northeast 522 601 25,000  Level New York Center
08:52AM 41.1958 -76.6692 22° Northeast 527 606 25,000  Level New York Center
08:53AM 41.3350 -76.5928 22° Northeast 532 612 25,000  Level New York Center
08:54AM 41.4761 -76.5164 22° Northeast 532 612 25,000  Level New York Center
08:55AM 41.6175 -76.4369 23° Northeast 532 612 25,000 -300 Level New York Center
08:57AM 41.9358 -76.2611 22° Northeast 552 635 24,100 -300 Descending Boston Center
08:58AM 42.0717 -76.1883 22° Northeast 535 616 24,000 -60 Descending Boston Center
08:59AM 42.1861 -76.0661 38° Northeast 518 596 24,000  Level Boston Center
09:00AM 42.2481 -75.8875 65° Northeast 504 580 24,000  Level Boston Center
09:01AM 42.3075 -75.7108 65° Northeast 503 579 24,000  Level Boston Center
09:02AM 42.3686 -75.5314 65° Northeast 503 579 24,000 -660 Level Boston Center
09:03AM 42.4319 -75.3489 65° Northeast 522 601 22,700 -1,920 Descending Boston Center
09:04AM 42.4822 -75.1739 69° East 516 594 20,200 -2,580 Descending Boston Center
09:05AM 42.5153 -75.0006 75° East 488 562 17,600 -2,940 Descending Boston Center
09:05AM 42.5364 -74.8917 75° East 457 526 15,700 -2,520 Descending Boston Center
09:06AM 42.5481 -74.8414 73° East 461 531 15,100 -2,100 Descending Boston Center
09:07AM 42.5514 -74.6808 88° East 420 483 12,700 -2,040 Descending Boston Center
09:08AM 42.5486 -74.4917 91° East 389 448 10,800 -1,320 Descending Boston Center
09:09AM 42.5731 -74.4025 70° East 360 414 10,100 -1,380 Descending Boston Center
09:10AM 42.6022 -74.2819 72° East 313 360 8,300 -1,740 Descending Boston Center
09:11AM 42.6267 -74.1839 71° East 296 341 6,700 -1,740 Descending Boston Center
09:11AM 42.6336 -74.1392 78° East 290 334 6,100 -1,740 Descending Boston Center
09:12AM 42.6408 -74.0686 82° East 283 326 5,000 -1,740 Descending Boston Center
09:12AM 42.6436 -74.0347 84° East 277 319 4,400 -1,500 Descending Boston Center
09:13AM 42.6486 -73.9672 84° East 273 314 3,500 -840 Descending Boston Center
09:13AM 42.6511 -73.9278 85° East 260 299 3,500 -120 Level Boston Center
09:14AM 42.6558 -73.8800 82° East 256 295 3,400 -720 Descending Boston Center
09:14AM 42.6586 -73.8319 85° East 213 245 2,700 -600 Descending Boston Center
09:15AM 42.6611 -73.7953 85° East 245 282 2,800 -1,260 Climbing Boston Center
09:15AM 42.6922 -73.8044 348° North 171 197 1,600 -2,820 Descending Boston Center